CheckWX is a tool to help pilots better visualize weather data.  It is not intended as a substitute for an official pre-flight weather briefing.

23:02:10 UTC

KHUT METAR
Hutchinson Regional Airport
Hutchinson, Kansas, USA
Current

1 hour ago

KHUT 192152Z 19019G30KT 10SM CLR 39/19 A2977 RMK AO2 PK WND 20032/2142 SLP050 T03890189
Observed
Jul-19 @ 21:52 UTC
Wind
  • 190° at 19 KTS
  • Gusting to 30 KTS
Visibility
10 SM
Flight Rules
VFR
Cloud Levels
  • Clear skies
Temperature
39°C / 102°F
Dewpoint
19°C / 66°F
Humidity
31%
Altimeter
29.77" Hg
Pressure
1008.12 hPa
Previous

2 hours ago

KHUT 192052Z 18020G27KT 10SM CLR 39/20 A2978 RMK AO2 PK WND 17030/2039 SLP054 T03890200 56013
Observed
Jul-19 @ 20:52 UTC
Wind
  • 180° at 20 KTS
  • Gusting to 27 KTS
Visibility
10 SM
Flight Rules
VFR
Cloud Levels
  • Clear skies
Temperature
39°C / 102°F
Dewpoint
20°C / 68°F
Humidity
33%
Altimeter
29.78" Hg
Pressure
1008.42 hPa
Previous

3 hours ago

KHUT 191952Z 20020G33KT 10SM CLR 39/19 A2979 RMK AO2 PK WND 19033/1948 SLP058 T03890194
Observed
Jul-19 @ 19:52 UTC
Wind
  • 200° at 20 KTS
  • Gusting to 33 KTS
Visibility
10 SM
Flight Rules
VFR
Cloud Levels
  • Clear skies
Temperature
39°C / 102°F
Dewpoint
19°C / 66°F
Humidity
31%
Altimeter
29.79" Hg
Pressure
1008.82 hPa